Terminal Aerodrome Forecast
Issued by NWS Grand Junction, CO

Home | Current Version | Previous Version | Text Only | Print | Product List | Glossary On
Versions: 1 2 3 4 5 6 7 8 9 10 11 12 13 14 15 16 17 18 19 20 21 22 23 24 25 26 27 28 29 30 31 32 33 34 35 36 37 38 39 40 41 42 43 44
000
FTUS45 KGJT 251956 AAC
TAFGJT
TAF AMD
KGJT 251956Z 2520/2618 VRB09G18KT P6SM VCTS SCT090CB BKN150
      TEMPO 2520/2522 -TSRA SCT040CB BKN100
     FM260100 14010G20KT P6SM VCTS SCT100CB BKN150
     FM260400 11010KT P6SM FEW100 SCT150
     FM261000 VRB06KT P6SM SCT100=

USA.gov is the U.S. government's official web portal to all federal, state and local government web resources and services.